createdAt,value
2017-09-05T00:00:36.814Z,0
2017-09-05T00:01:36.725Z,0
2017-09-05T00:02:36.763Z,0
2017-09-05T00:03:36.786Z,0
2017-09-05T00:04:36.771Z,0
2017-09-05T00:05:36.793Z,0
2017-09-05T00:06:36.714Z,0
2017-09-05T00:07:36.751Z,0
2017-09-05T00:08:36.716Z,0
2017-09-05T00:09:36.751Z,0
2017-09-05T00:10:36.745Z,0
2017-09-05T00:11:36.719Z,0
2017-09-05T00:12:36.745Z,0
2017-09-05T00:13:36.725Z,0
2017-09-05T00:14:36.780Z,0
2017-09-05T00:15:36.724Z,0
2017-09-05T00:16:36.720Z,0
2017-09-05T00:17:36.738Z,0
2017-09-05T00:18:36.802Z,0
2017-09-05T00:19:36.776Z,0
2017-09-05T00:20:36.694Z,0
2017-09-05T00:21:36.746Z,0
2017-09-05T00:22:36.669Z,0
2017-09-05T00:23:36.749Z,0
2017-09-05T00:24:36.862Z,0
2017-09-05T00:25:36.749Z,0
2017-09-05T00:26:36.729Z,0
2017-09-05T00:27:36.756Z,0
2017-09-05T00:28:36.729Z,0
2017-09-05T00:29:36.733Z,0
2017-09-05T00:30:36.758Z,0
2017-09-05T00:31:36.791Z,0
2017-09-05T00:32:36.733Z,0
2017-09-05T00:33:36.733Z,0
2017-09-05T00:34:36.761Z,0
2017-09-05T00:35:36.802Z,0
2017-09-05T00:36:36.760Z,0
2017-09-05T00:37:36.761Z,0
2017-09-05T00:38:36.761Z,0
2017-09-05T00:39:36.763Z,0
2017-09-05T00:40:36.735Z,0
2017-09-05T00:41:36.734Z,0
2017-09-05T00:42:36.739Z,0
2017-09-05T00:43:36.798Z,0
2017-09-05T00:44:36.797Z,0
2017-09-05T00:45:36.797Z,0
2017-09-05T00:46:36.797Z,0
2017-09-05T00:47:36.767Z,0
2017-09-05T00:48:36.805Z,0
2017-09-05T00:49:36.742Z,0
2017-09-05T00:50:36.743Z,0
2017-09-05T00:51:36.800Z,0
2017-09-05T00:52:36.806Z,0
2017-09-05T00:53:36.773Z,0
2017-09-05T00:54:36.804Z,0
2017-09-05T00:55:36.808Z,0
2017-09-05T00:56:36.861Z,0
2017-09-05T00:57:36.734Z,0
2017-09-05T00:58:36.748Z,0
2017-09-05T00:59:36.736Z,0
2017-09-05T01:00:36.819Z,0
2017-09-05T01:01:36.777Z,0
2017-09-05T01:02:36.707Z,0
2017-09-05T01:03:36.779Z,0
2017-09-05T01:04:36.830Z,0
2017-09-05T01:05:36.754Z,0
2017-09-05T01:06:36.751Z,0
2017-09-05T01:07:36.724Z,0
2017-09-05T01:08:36.755Z,0
2017-09-05T01:09:36.687Z,0
2017-09-05T01:10:36.753Z,0
2017-09-05T01:11:36.735Z,0
2017-09-05T01:12:36.720Z,0
2017-09-05T01:13:36.691Z,0
2017-09-05T01:14:36.731Z,0
2017-09-05T01:15:36.767Z,0
2017-09-05T01:16:36.787Z,0
2017-09-05T01:17:36.786Z,0
2017-09-05T01:18:36.761Z,0
2017-09-05T01:19:36.790Z,0
2017-09-05T01:20:36.761Z,0
2017-09-05T01:21:36.891Z,0
2017-09-05T01:22:36.765Z,0
2017-09-05T01:23:36.793Z,0
2017-09-05T01:24:36.825Z,0
2017-09-05T01:25:36.794Z,0
2017-09-05T01:26:36.765Z,0
2017-09-05T01:27:36.767Z,0
2017-09-05T01:28:36.826Z,0
2017-09-05T01:29:36.769Z,0
2017-09-05T01:30:36.792Z,0
2017-09-05T01:31:36.831Z,0
2017-09-05T01:32:36.767Z,0
2017-09-05T01:33:36.797Z,0
2017-09-05T01:34:36.778Z,0
2017-09-05T01:35:36.829Z,0
2017-09-05T01:36:36.773Z,0
2017-09-05T01:37:36.710Z,0
2017-09-05T01:38:36.794Z,0
2017-09-05T01:39:36.776Z,0
2017-09-05T01:40:36.717Z,0
2017-09-05T01:41:36.789Z,0
2017-09-05T01:42:36.718Z,0
2017-09-05T01:43:36.722Z,0
2017-09-05T01:44:36.721Z,0
2017-09-05T01:45:36.784Z,0
2017-09-05T01:46:36.839Z,0
2017-09-05T01:47:36.804Z,0
2017-09-05T01:48:36.820Z,0
2017-09-05T01:49:36.842Z,0
2017-09-05T01:50:36.838Z,0
2017-09-05T01:51:36.787Z,0
2017-09-05T01:52:36.780Z,0
2017-09-05T01:53:36.806Z,0
2017-09-05T01:54:36.783Z,0
2017-09-05T01:55:36.808Z,0
2017-09-05T01:56:36.859Z,0
2017-09-05T01:57:36.884Z,0
2017-09-05T01:58:36.880Z,0
2017-09-05T01:59:36.800Z,0
2017-09-05T02:00:36.787Z,0
2017-09-05T02:01:36.793Z,0
2017-09-05T02:02:36.863Z,0
2017-09-05T02:03:36.819Z,0
2017-09-05T02:04:36.819Z,0
2017-09-05T02:05:36.850Z,0
2017-09-05T02:06:36.814Z,0
2017-09-05T02:07:36.793Z,0
2017-09-05T02:08:36.820Z,0
2017-09-05T02:09:36.790Z,0
2017-09-05T02:10:36.767Z,0
2017-09-05T02:11:36.778Z,0
2017-09-05T02:12:36.815Z,0
2017-09-05T02:13:36.822Z,0
2017-09-05T02:14:36.795Z,0
2017-09-05T02:15:36.866Z,0
2017-09-05T02:16:36.867Z,0
2017-09-05T02:17:36.872Z,0
2017-09-05T02:18:36.829Z,0
2017-09-05T02:19:36.805Z,0
2017-09-05T02:20:36.902Z,0
2017-09-05T02:21:36.897Z,0
2017-09-05T02:22:36.932Z,0
2017-09-05T02:23:36.808Z,0
2017-09-05T02:24:36.895Z,0
2017-09-05T02:25:36.904Z,0
2017-09-05T02:26:36.902Z,0
2017-09-05T02:27:36.829Z,0
2017-09-05T02:28:36.808Z,0
2017-09-05T02:29:36.902Z,0
2017-09-05T02:30:36.905Z,0
2017-09-05T02:31:36.813Z,0
2017-09-05T02:32:36.879Z,0
2017-09-05T02:33:36.872Z,0
2017-09-05T02:34:36.868Z,0
2017-09-05T02:35:36.836Z,0
2017-09-05T02:36:36.848Z,0
2017-09-05T02:37:36.915Z,0
2017-09-05T02:38:36.847Z,0
2017-09-05T02:39:36.927Z,0
2017-09-05T02:40:36.816Z,0
2017-09-05T02:41:36.838Z,0
2017-09-05T02:42:36.889Z,0
2017-09-05T02:43:36.846Z,0
2017-09-05T02:44:36.817Z,0
2017-09-05T02:45:36.917Z,0
2017-09-05T02:46:36.873Z,0
2017-09-05T02:47:36.840Z,0
2017-09-05T02:48:36.873Z,0
2017-09-05T02:49:36.839Z,0
2017-09-05T02:50:36.876Z,0
2017-09-05T02:51:36.840Z,0
2017-09-05T02:52:36.817Z,0
2017-09-05T02:53:36.843Z,0
2017-09-05T02:54:36.844Z,0
2017-09-05T02:55:37.105Z,0
2017-09-05T02:56:36.860Z,0
2017-09-05T02:57:36.916Z,0
2017-09-05T02:58:36.849Z,0
2017-09-05T02:59:36.925Z,0
2017-09-05T03:00:36.894Z,0
2017-09-05T03:01:36.893Z,0
2017-09-05T03:02:36.861Z,0
2017-09-05T03:03:36.901Z,0
2017-09-05T03:04:36.829Z,0
2017-09-05T03:05:36.861Z,0
2017-09-05T03:06:36.883Z,0
2017-09-05T03:07:36.852Z,0
2017-09-05T03:08:36.851Z,0
2017-09-05T03:09:36.854Z,0
2017-09-05T03:10:36.852Z,0
2017-09-05T03:11:36.851Z,0
2017-09-05T03:12:36.855Z,0
2017-09-05T03:13:36.826Z,0
2017-09-05T03:14:36.857Z,0
2017-09-05T03:15:36.885Z,0
2017-09-05T03:16:36.860Z,0
2017-09-05T03:17:36.831Z,0
2017-09-05T03:18:36.894Z,0
2017-09-05T03:19:36.893Z,0
2017-09-05T03:20:36.831Z,0
2017-09-05T03:21:36.863Z,0
2017-09-05T03:22:36.895Z,0
2017-09-05T03:23:36.893Z,0
2017-09-05T03:24:36.896Z,0
2017-09-05T03:25:36.862Z,0
2017-09-05T03:26:36.934Z,0
2017-09-05T03:27:36.906Z,0
2017-09-05T03:28:36.845Z,0
2017-09-05T03:29:36.898Z,0
2017-09-05T03:30:36.872Z,0
2017-09-05T03:31:36.932Z,0
2017-09-05T03:32:36.849Z,0
2017-09-05T03:33:36.916Z,0
2017-09-05T03:34:36.850Z,0
2017-09-05T03:35:36.847Z,0
2017-09-05T03:36:36.841Z,0
2017-09-05T03:37:36.874Z,0
2017-09-05T03:38:36.841Z,0
2017-09-05T03:39:36.905Z,0
2017-09-05T03:40:36.847Z,0
2017-09-05T03:41:36.907Z,0
2017-09-05T03:42:36.905Z,0
2017-09-05T03:43:36.911Z,0
2017-09-05T03:44:36.904Z,0
2017-09-05T03:45:36.909Z,0
2017-09-05T03:46:36.848Z,0
2017-09-05T03:47:36.876Z,0
2017-09-05T03:48:36.876Z,0
2017-09-05T03:49:36.827Z,0
2017-09-05T03:50:36.887Z,0
2017-09-05T03:51:36.921Z,0
2017-09-05T03:52:36.876Z,0
2017-09-05T03:53:36.879Z,0
2017-09-05T03:54:36.811Z,0
2017-09-05T03:55:36.908Z,0
2017-09-05T03:56:36.887Z,0
2017-09-05T03:57:36.913Z,0
2017-09-05T03:58:36.882Z,0
2017-09-05T03:59:36.883Z,0
2017-09-05T04:00:36.915Z,0
2017-09-05T04:01:36.914Z,0
2017-09-05T04:02:36.918Z,0
2017-09-05T04:03:36.886Z,0
2017-09-05T04:04:36.919Z,0
2017-09-05T04:05:36.859Z,0
2017-09-05T04:06:36.888Z,0
2017-09-05T04:07:36.894Z,0
2017-09-05T04:08:36.901Z,0
2017-09-05T04:09:36.963Z,0
2017-09-05T04:10:36.873Z,0
2017-09-05T04:11:36.938Z,0
2017-09-05T04:12:36.905Z,0
2017-09-05T04:13:36.895Z,0
2017-09-05T04:14:36.907Z,0
2017-09-05T04:15:36.870Z,0
2017-09-05T04:16:36.959Z,0
2017-09-05T04:17:36.894Z,0
2017-09-05T04:18:36.925Z,0
2017-09-05T04:19:36.866Z,0
2017-09-05T04:20:36.870Z,0
2017-09-05T04:21:36.950Z,0
2017-09-05T04:22:36.901Z,0
2017-09-05T04:23:36.872Z,0
2017-09-05T04:24:36.898Z,0
2017-09-05T04:25:36.874Z,0
2017-09-05T04:26:36.872Z,0
2017-09-05T04:27:36.970Z,0
2017-09-05T04:28:36.906Z,0
2017-09-05T04:29:36.973Z,0
2017-09-05T04:30:36.908Z,0
2017-09-05T04:31:36.981Z,0
2017-09-05T04:32:36.947Z,0
2017-09-05T04:33:36.885Z,0
2017-09-05T04:34:36.955Z,0
2017-09-05T04:35:36.881Z,0
2017-09-05T04:36:36.921Z,0
2017-09-05T04:37:36.944Z,0
2017-09-05T04:38:36.905Z,0
2017-09-05T04:39:36.913Z,0
2017-09-05T04:40:36.920Z,0
2017-09-05T04:41:36.889Z,0
2017-09-05T04:42:36.912Z,0
2017-09-05T04:43:36.952Z,0
2017-09-05T04:44:36.943Z,0
2017-09-05T04:45:36.918Z,0
2017-09-05T04:46:36.951Z,0
2017-09-05T04:47:36.887Z,0
2017-09-05T04:48:36.943Z,0
2017-09-05T04:49:36.924Z,0
2017-09-05T04:50:36.924Z,0
2017-09-05T04:51:36.917Z,0
2017-09-05T04:52:36.927Z,0
2017-09-05T04:53:36.951Z,0
2017-09-05T04:54:36.947Z,0
2017-09-05T04:55:36.985Z,0
2017-09-05T04:56:36.982Z,0
2017-09-05T04:57:36.911Z,0
2017-09-05T04:58:36.964Z,0
2017-09-05T04:59:36.956Z,0
2017-09-05T05:00:36.935Z,0
2017-09-05T05:01:36.997Z,0
2017-09-05T05:02:36.987Z,0
2017-09-05T05:03:36.960Z,0
2017-09-05T05:04:36.936Z,0
2017-09-05T05:05:36.963Z,0
2017-09-05T05:06:36.900Z,0
2017-09-05T05:07:36.905Z,0
2017-09-05T05:08:36.875Z,0
2017-09-05T05:09:36.905Z,0
2017-09-05T05:10:36.968Z,22
2017-09-05T05:11:36.926Z,21
2017-09-05T05:12:36.897Z,23
2017-09-05T05:13:36.900Z,26
2017-09-05T05:14:36.906Z,25
2017-09-05T05:15:36.873Z,23
2017-09-05T05:16:36.902Z,21
2017-09-05T05:17:37.001Z,19
2017-09-05T05:18:36.968Z,22
2017-09-05T05:19:36.974Z,30
2017-09-05T05:20:36.927Z,35
2017-09-05T05:21:36.978Z,32
2017-09-05T05:22:36.913Z,20
2017-09-05T05:23:36.968Z,14
2017-09-05T05:24:36.932Z,17
2017-09-05T05:25:37.009Z,17
2017-09-05T05:26:36.945Z,16
2017-09-05T05:27:36.906Z,17
2017-09-05T05:28:36.971Z,18
2017-09-05T05:29:36.942Z,19
2017-09-05T05:30:36.933Z,20
2017-09-05T05:31:36.932Z,21
2017-09-05T05:32:36.944Z,20
2017-09-05T05:33:36.928Z,19
2017-09-05T05:34:36.938Z,16
2017-09-05T05:35:36.895Z,19
2017-09-05T05:36:36.936Z,25
2017-09-05T05:37:36.970Z,32
2017-09-05T05:38:36.989Z,34
2017-09-05T05:39:36.939Z,39
2017-09-05T05:40:36.970Z,44
2017-09-05T05:41:36.912Z,39
2017-09-05T05:42:36.975Z,47
2017-09-05T05:43:36.916Z,49
2017-09-05T05:44:36.947Z,54
2017-09-05T05:45:36.913Z,54
2017-09-05T05:46:36.963Z,48
2017-09-05T05:47:36.981Z,45
2017-09-05T05:48:36.924Z,46
2017-09-05T05:49:36.997Z,59
2017-09-05T05:50:36.951Z,76
2017-09-05T05:51:37.025Z,87
2017-09-05T05:52:36.929Z,87
2017-09-05T05:53:36.961Z,83
2017-09-05T05:54:36.950Z,86
2017-09-05T05:55:36.962Z,76
2017-09-05T05:56:37.031Z,72
2017-09-05T05:57:37.012Z,64
2017-09-05T05:58:37.023Z,62
2017-09-05T05:59:36.992Z,59
2017-09-05T06:00:36.994Z,62
2017-09-05T06:01:36.932Z,58
2017-09-05T06:02:36.988Z,56
2017-09-05T06:03:36.934Z,55
2017-09-05T06:04:37.001Z,57
2017-09-05T06:05:36.939Z,42
2017-09-05T06:06:36.976Z,34
2017-09-05T06:07:37.000Z,29
2017-09-05T06:08:36.967Z,24
2017-09-05T06:09:36.968Z,23
2017-09-05T06:10:36.989Z,25
2017-09-05T06:11:37.037Z,24
2017-09-05T06:12:37.012Z,22
2017-09-05T06:13:37.034Z,20
2017-09-05T06:14:36.977Z,30
2017-09-05T06:15:37.029Z,39
2017-09-05T06:16:37.016Z,39
2017-09-05T06:17:36.998Z,28
2017-09-05T06:18:37.054Z,23
2017-09-05T06:19:36.932Z,27
2017-09-05T06:20:36.984Z,36
2017-09-05T06:21:36.968Z,37
2017-09-05T06:22:36.996Z,38
2017-09-05T06:23:36.931Z,43
2017-09-05T06:24:36.970Z,50
2017-09-05T06:25:36.934Z,51
2017-09-05T06:26:36.972Z,50
2017-09-05T06:27:36.949Z,49
2017-09-05T06:28:36.903Z,55
2017-09-05T06:29:36.949Z,62
2017-09-05T06:30:36.998Z,62
2017-09-05T06:31:36.973Z,53
2017-09-05T06:32:36.968Z,50
2017-09-05T06:33:36.945Z,53
2017-09-05T06:34:37.013Z,58
2017-09-05T06:35:36.972Z,69
2017-09-05T06:36:37.019Z,83
2017-09-05T06:37:36.924Z,91
2017-09-05T06:38:36.926Z,94
2017-09-05T06:39:36.934Z,94
2017-09-05T06:40:36.924Z,94
2017-09-05T06:41:36.973Z,93
2017-09-05T06:42:36.931Z,94
2017-09-05T06:43:37.044Z,81
2017-09-05T06:44:36.954Z,93
2017-09-05T06:45:37.141Z,93
2017-09-05T06:46:37.074Z,94
2017-09-05T06:47:37.051Z,94
2017-09-05T06:48:36.964Z,90
2017-09-05T06:49:36.982Z,89
2017-09-05T06:50:36.959Z,86
2017-09-05T06:51:36.968Z,84
2017-09-05T06:52:36.971Z,83
2017-09-05T06:53:37.016Z,84
2017-09-05T06:54:37.060Z,84
2017-09-05T06:56:37.038Z,96
2017-09-05T06:57:36.990Z,107
2017-09-05T06:58:37.004Z,125
2017-09-05T06:59:37.061Z,149
2017-09-05T07:00:37.064Z,164
2017-09-05T07:01:37.038Z,167
2017-09-05T07:02:37.021Z,158
2017-09-05T07:03:36.974Z,143
2017-09-05T07:04:37.043Z,130
2017-09-05T07:05:36.997Z,118
2017-09-05T07:06:37.040Z,115
2017-09-05T07:07:36.978Z,119
2017-09-05T07:08:37.036Z,127
2017-09-05T07:09:36.969Z,170
2017-09-05T07:10:37.002Z,223
2017-09-05T07:11:36.941Z,257
2017-09-05T07:12:36.976Z,251
2017-09-05T07:13:36.996Z,263
2017-09-05T07:14:36.941Z,255
2017-09-05T07:15:36.997Z,269
2017-09-05T07:16:36.952Z,287
2017-09-05T07:17:37.065Z,316
2017-09-05T07:18:36.977Z,341
2017-09-05T07:19:37.077Z,346
2017-09-05T07:20:36.986Z,317
2017-09-05T07:21:37.016Z,274
2017-09-05T07:22:37.009Z,247
2017-09-05T07:23:37.036Z,238
2017-09-05T07:24:37.069Z,232
2017-09-05T07:25:37.071Z,229
2017-09-05T07:26:37.050Z,230
2017-09-05T07:27:37.030Z,243
2017-09-05T07:28:37.001Z,260
2017-09-05T07:29:37.046Z,277
2017-09-05T07:30:36.979Z,282
2017-09-05T07:31:36.988Z,259
2017-09-05T07:32:37.046Z,233
2017-09-05T07:33:36.960Z,215
2017-09-05T07:34:37.005Z,208
2017-09-05T07:35:37.011Z,210
2017-09-05T07:36:36.968Z,213
2017-09-05T07:37:36.970Z,215
2017-09-05T07:38:37.048Z,221
2017-09-05T07:39:36.998Z,227
2017-09-05T07:40:37.013Z,235
2017-09-05T07:41:36.963Z,243
2017-09-05T07:42:37.048Z,250
2017-09-05T07:43:36.975Z,254
2017-09-05T07:44:37.002Z,262
2017-09-05T07:45:36.962Z,272
2017-09-05T07:46:36.993Z,276
2017-09-05T07:47:36.995Z,279
2017-09-05T07:48:37.028Z,282
2017-09-05T07:49:37.084Z,289
2017-09-05T07:50:37.059Z,292
2017-09-05T07:51:37.004Z,302
2017-09-05T07:52:37.050Z,300
2017-09-05T07:53:37.092Z,300
2017-09-05T07:54:36.996Z,299
2017-09-05T07:55:37.033Z,286
2017-09-05T07:56:37.096Z,275
2017-09-05T07:57:37.024Z,275
2017-09-05T07:58:37.059Z,278
2017-09-05T07:59:37.033Z,278
2017-09-05T08:00:36.997Z,277
2017-09-05T08:01:37.024Z,273
2017-09-05T08:02:37.060Z,273
2017-09-05T08:03:36.994Z,276
2017-09-05T08:04:37.057Z,277
2017-09-05T08:05:36.999Z,280
2017-09-05T08:06:37.060Z,287
2017-09-05T08:07:36.996Z,289
2017-09-05T08:08:37.078Z,295
2017-09-05T08:09:37.102Z,295
2017-09-05T08:10:37.012Z,293
2017-09-05T08:11:37.078Z,294
2017-09-05T08:12:37.047Z,297
2017-09-05T08:13:37.041Z,301
2017-09-05T08:14:37.068Z,301
2017-09-05T08:15:37.097Z,310
2017-09-05T08:16:37.084Z,329
2017-09-05T08:17:37.020Z,346
2017-09-05T08:18:37.037Z,360
2017-09-05T08:19:37.062Z,369
2017-09-05T08:20:37.008Z,378
2017-09-05T08:21:37.027Z,408
2017-09-05T08:22:36.991Z,393
2017-09-05T08:23:37.010Z,379
2017-09-05T08:24:36.981Z,371
2017-09-05T08:25:36.954Z,372
2017-09-05T08:26:37.035Z,378
2017-09-05T08:27:37.099Z,385
2017-09-05T08:28:37.081Z,378
2017-09-05T08:29:37.106Z,377
2017-09-05T08:30:37.024Z,348
2017-09-05T08:31:37.042Z,330
2017-09-05T08:32:37.049Z,319
2017-09-05T08:33:37.080Z,305
2017-09-05T08:34:37.028Z,294
2017-09-05T08:35:37.059Z,287
2017-09-05T08:36:37.054Z,282
2017-09-05T08:37:37.124Z,277
2017-09-05T08:38:37.080Z,273
2017-09-05T08:39:37.124Z,275
2017-09-05T08:40:37.122Z,280
2017-09-05T08:41:37.081Z,292
2017-09-05T08:42:37.083Z,305
2017-09-05T08:43:37.129Z,316
2017-09-05T08:44:37.127Z,321
2017-09-05T08:45:37.035Z,328
2017-09-05T08:46:37.050Z,335
2017-09-05T08:47:37.106Z,347
2017-09-05T08:48:37.052Z,352
2017-09-05T08:49:37.055Z,356
2017-09-05T08:50:37.036Z,354
2017-09-05T08:51:37.090Z,359
2017-09-05T08:52:37.049Z,369
2017-09-05T08:53:37.091Z,374
2017-09-05T08:54:37.104Z,380
2017-09-05T08:55:37.092Z,387
2017-09-05T08:56:37.091Z,387
2017-09-05T08:57:37.039Z,390
2017-09-05T08:58:36.989Z,398
2017-09-05T08:59:37.056Z,400
2017-09-05T09:00:37.005Z,400
2017-09-05T09:01:37.048Z,396
2017-09-05T09:02:36.989Z,384
2017-09-05T09:03:37.100Z,380
2017-09-05T09:04:37.036Z,386
2017-09-05T09:05:36.993Z,402
2017-09-05T09:06:37.036Z,406
2017-09-05T09:07:37.039Z,399
2017-09-05T09:08:37.045Z,389
2017-09-05T09:09:37.103Z,382
2017-09-05T09:10:37.060Z,397
2017-09-05T09:11:37.067Z,412
2017-09-05T09:12:37.070Z,460
2017-09-05T09:13:37.049Z,610
2017-09-05T09:14:37.060Z,529
2017-09-05T09:15:37.069Z,448
2017-09-05T09:16:37.051Z,430
2017-09-05T09:17:37.061Z,428
2017-09-05T09:18:37.067Z,462
2017-09-05T09:19:37.072Z,529
2017-09-05T09:20:37.046Z,572
2017-09-05T09:21:37.050Z,535
2017-09-05T09:22:37.110Z,496
2017-09-05T09:23:37.054Z,515
2017-09-05T09:24:37.076Z,512
2017-09-05T09:25:37.083Z,591
2017-09-05T09:26:37.052Z,549
2017-09-05T09:27:37.049Z,472
2017-09-05T09:28:37.106Z,403
2017-09-05T09:29:37.043Z,366
2017-09-05T09:30:37.076Z,410
2017-09-05T09:31:37.046Z,721
2017-09-05T09:32:37.109Z,791
2017-09-05T09:33:37.081Z,694
2017-09-05T09:34:37.046Z,826
2017-09-05T09:35:37.074Z,854
2017-09-05T09:36:37.107Z,876
2017-09-05T09:37:37.045Z,868
2017-09-05T09:38:37.063Z,765
2017-09-05T09:39:37.138Z,880
2017-09-05T09:40:37.095Z,894
2017-09-05T09:41:37.127Z,917
2017-09-05T09:42:37.120Z,936
2017-09-05T09:43:37.124Z,960
2017-09-05T09:44:37.160Z,900
2017-09-05T09:45:37.153Z,761
2017-09-05T09:46:37.085Z,771
2017-09-05T09:47:37.121Z,679
2017-09-05T09:48:37.091Z,831
2017-09-05T09:49:37.086Z,795
2017-09-05T09:50:37.057Z,768
2017-09-05T09:51:37.062Z,637
2017-09-05T09:52:37.096Z,700
2017-09-05T09:53:37.125Z,731
2017-09-05T09:54:37.125Z,833
2017-09-05T09:55:37.064Z,752
2017-09-05T09:56:37.069Z,817
2017-09-05T09:57:37.124Z,656
2017-09-05T09:58:37.167Z,800
2017-09-05T09:59:37.136Z,729
2017-09-05T10:00:37.146Z,840
2017-09-05T10:01:37.202Z,847
2017-09-05T10:02:37.077Z,870
2017-09-05T10:03:37.088Z,865
2017-09-05T10:04:37.094Z,823
2017-09-05T10:05:37.108Z,802
2017-09-05T10:06:37.118Z,900
2017-09-05T10:07:37.079Z,802
2017-09-05T10:08:37.109Z,674
2017-09-05T10:09:37.080Z,520
2017-09-05T10:10:37.148Z,477
2017-09-05T10:11:37.145Z,638
2017-09-05T10:12:37.153Z,664
2017-09-05T10:13:37.146Z,532
2017-09-05T10:14:37.180Z,636
2017-09-05T10:15:37.157Z,827
2017-09-05T10:16:37.085Z,832
2017-09-05T10:17:37.154Z,674
2017-09-05T10:18:37.143Z,672
2017-09-05T10:19:37.112Z,956
2017-09-05T10:20:37.140Z,816
2017-09-05T10:21:37.142Z,777
2017-09-05T10:22:37.108Z,810
2017-09-05T10:23:37.080Z,724
2017-09-05T10:24:37.146Z,815
2017-09-05T10:25:37.082Z,713
2017-09-05T10:26:37.138Z,651
2017-09-05T10:27:37.079Z,842
2017-09-05T10:28:37.124Z,618
2017-09-05T10:29:37.146Z,700
2017-09-05T10:30:37.114Z,788
2017-09-05T10:31:37.082Z,732
2017-09-05T10:32:37.081Z,652
2017-09-05T10:33:37.142Z,731
2017-09-05T10:34:37.148Z,631
2017-09-05T10:35:37.149Z,601
2017-09-05T10:36:37.088Z,609
2017-09-05T10:37:37.116Z,720
2017-09-05T10:38:37.121Z,815
2017-09-05T10:39:37.119Z,792
2017-09-05T10:40:37.157Z,570
2017-09-05T10:41:37.191Z,513
2017-09-05T10:42:37.170Z,503
2017-09-05T10:43:37.184Z,573
2017-09-05T10:44:37.165Z,661
2017-09-05T10:45:37.167Z,586
2017-09-05T10:46:37.123Z,528
2017-09-05T10:47:37.103Z,540
2017-09-05T10:48:37.103Z,597
2017-09-05T10:49:37.202Z,519
2017-09-05T10:50:37.158Z,485
2017-09-05T10:51:37.198Z,493
2017-09-05T10:52:37.139Z,512
2017-09-05T10:53:37.130Z,488
2017-09-05T10:54:37.205Z,550
2017-09-05T10:55:37.107Z,525
2017-09-05T10:56:37.162Z,561
2017-09-05T10:57:37.144Z,543
2017-09-05T10:58:37.169Z,590
2017-09-05T10:59:37.143Z,647
2017-09-05T11:00:37.167Z,694
2017-09-05T11:01:37.293Z,695
2017-09-05T11:02:37.133Z,618
2017-09-05T11:03:37.165Z,618
2017-09-05T11:04:37.113Z,601
2017-09-05T11:05:37.172Z,564
2017-09-05T11:06:37.153Z,537
2017-09-05T11:07:37.211Z,515
2017-09-05T11:08:37.107Z,521
2017-09-05T11:09:37.133Z,531
2017-09-05T11:10:37.138Z,706
2017-09-05T11:11:37.105Z,534
2017-09-05T11:12:37.138Z,483
2017-09-05T11:13:37.190Z,464
2017-09-05T11:14:37.141Z,460
2017-09-05T11:15:37.174Z,464
2017-09-05T11:16:37.141Z,459
2017-09-05T11:17:37.177Z,462
2017-09-05T11:18:37.122Z,497
2017-09-05T11:19:37.122Z,541
2017-09-05T11:20:37.178Z,533
2017-09-05T11:21:37.122Z,525
2017-09-05T11:22:37.209Z,617
2017-09-05T11:23:37.121Z,650
2017-09-05T11:24:37.180Z,896
2017-09-05T11:25:37.156Z,718
2017-09-05T11:26:37.157Z,608
2017-09-05T11:27:37.181Z,669
2017-09-05T11:28:37.120Z,567
2017-09-05T11:29:37.183Z,702
2017-09-05T11:30:37.187Z,521
2017-09-05T11:31:37.126Z,556
2017-09-05T11:32:37.148Z,568
2017-09-05T11:33:37.213Z,614
2017-09-05T11:34:37.165Z,578
2017-09-05T11:35:37.180Z,562
2017-09-05T11:36:37.224Z,764
2017-09-05T11:37:37.162Z,727
2017-09-05T11:38:37.202Z,642
2017-09-05T11:39:37.154Z,393
2017-09-05T11:40:37.138Z,407
2017-09-05T11:41:37.133Z,386
2017-09-05T11:42:37.132Z,350
2017-09-05T11:43:37.207Z,512
2017-09-05T11:44:37.169Z,418
2017-09-05T11:45:37.155Z,414
2017-09-05T11:46:37.137Z,390
2017-09-05T11:47:37.196Z,362
2017-09-05T11:48:37.142Z,360
2017-09-05T11:49:37.175Z,663
2017-09-05T11:50:37.139Z,444
2017-09-05T11:51:37.184Z,420
2017-09-05T11:52:37.140Z,397
2017-09-05T11:53:37.238Z,426
2017-09-05T11:54:37.237Z,475
2017-09-05T11:55:37.214Z,763
2017-09-05T11:56:37.146Z,1018
2017-09-05T11:57:37.216Z,669
2017-09-05T11:58:37.146Z,958
2017-09-05T11:59:37.143Z,934
2017-09-05T12:00:37.171Z,1078
2017-09-05T12:01:37.152Z,873
2017-09-05T12:02:37.213Z,1054
2017-09-05T12:03:37.203Z,901
2017-09-05T12:04:37.219Z,1131
2017-09-05T12:05:37.208Z,621
2017-09-05T12:07:37.223Z,472
2017-09-05T12:08:37.243Z,523
2017-09-05T12:09:37.205Z,766
2017-09-05T12:10:37.211Z,470
2017-09-05T12:11:37.186Z,530
2017-09-05T12:12:37.192Z,583
2017-09-05T12:13:37.158Z,591
2017-09-05T12:14:37.211Z,527
2017-09-05T12:15:37.211Z,683
2017-09-05T12:16:37.377Z,392
2017-09-05T12:17:37.217Z,425
2017-09-05T12:18:37.183Z,554
2017-09-05T12:19:37.137Z,533
2017-09-05T12:20:37.189Z,466
2017-09-05T12:21:37.159Z,453
2017-09-05T12:22:37.178Z,438
2017-09-05T12:23:37.155Z,492
2017-09-05T12:24:37.166Z,611
2017-09-05T12:25:37.172Z,580
2017-09-05T12:26:37.162Z,449
2017-09-05T12:27:37.182Z,394
2017-09-05T12:28:37.257Z,347
2017-09-05T12:29:37.225Z,298
2017-09-05T12:30:37.201Z,257
2017-09-05T12:31:37.159Z,235
2017-09-05T12:32:37.203Z,225
2017-09-05T12:33:37.199Z,220
2017-09-05T12:34:37.242Z,218
2017-09-05T12:35:37.229Z,214
2017-09-05T12:36:37.205Z,211
2017-09-05T12:37:37.253Z,209
2017-09-05T12:38:37.160Z,211
2017-09-05T12:39:37.221Z,215
2017-09-05T12:40:37.189Z,219
2017-09-05T12:41:37.225Z,232
2017-09-05T12:42:37.193Z,266
2017-09-05T12:43:37.190Z,314
2017-09-05T12:44:37.189Z,363
2017-09-05T12:45:37.228Z,414
2017-09-05T12:46:37.163Z,446
2017-09-05T12:47:37.170Z,437
2017-09-05T12:48:37.149Z,406
2017-09-05T12:49:37.152Z,362
2017-09-05T12:50:37.110Z,342
2017-09-05T12:51:37.158Z,329
2017-09-05T12:52:37.155Z,341
2017-09-05T12:53:37.168Z,337
2017-09-05T12:54:37.178Z,352
2017-09-05T12:55:37.111Z,464
2017-09-05T12:56:37.165Z,790
2017-09-05T12:57:37.179Z,802
2017-09-05T12:58:37.245Z,695
2017-09-05T12:59:37.233Z,639
2017-09-05T13:00:37.212Z,601
2017-09-05T13:01:37.180Z,624
2017-09-05T13:02:37.211Z,572
2017-09-05T13:03:37.219Z,608
2017-09-05T13:04:37.297Z,310
2017-09-05T13:05:37.241Z,296
2017-09-05T13:06:37.185Z,387
2017-09-05T13:07:37.203Z,316
2017-09-05T13:08:37.224Z,592
2017-09-05T13:09:37.211Z,632
2017-09-05T13:10:37.258Z,583
2017-09-05T13:11:37.197Z,343
2017-09-05T13:12:37.192Z,607
2017-09-05T13:13:37.288Z,351
2017-09-05T13:14:37.213Z,354
2017-09-05T13:15:37.283Z,379
2017-09-05T13:16:37.254Z,382
2017-09-05T13:17:37.212Z,357
2017-09-05T13:18:37.285Z,369
2017-09-05T13:19:37.245Z,436
2017-09-05T13:20:37.214Z,455
2017-09-05T13:21:37.250Z,694
2017-09-05T13:22:37.245Z,588
2017-09-05T13:23:37.213Z,895
2017-09-05T13:24:37.245Z,739
2017-09-05T13:25:37.226Z,617
2017-09-05T13:26:37.249Z,360
2017-09-05T13:27:37.247Z,352
2017-09-05T13:28:37.184Z,354
2017-09-05T13:29:37.236Z,378
2017-09-05T13:30:37.258Z,413
2017-09-05T13:31:37.235Z,390
2017-09-05T13:32:37.233Z,440
2017-09-05T13:33:37.289Z,937
2017-09-05T13:34:37.273Z,795
2017-09-05T13:35:37.285Z,888
2017-09-05T13:36:37.296Z,482
2017-09-05T13:37:37.289Z,318
2017-09-05T13:38:37.203Z,308
2017-09-05T13:39:37.257Z,313
2017-09-05T13:40:37.206Z,365
2017-09-05T13:41:37.202Z,728
2017-09-05T13:42:37.216Z,937
2017-09-05T13:43:37.175Z,901
2017-09-05T13:44:37.213Z,987
2017-09-05T13:45:37.176Z,967
2017-09-05T13:46:37.293Z,958
2017-09-05T13:47:37.204Z,538
2017-09-05T13:48:37.233Z,407
2017-09-05T13:49:37.272Z,378
2017-09-05T13:50:37.297Z,376
2017-09-05T13:51:37.237Z,393
2017-09-05T13:52:37.216Z,532
2017-09-05T13:53:37.286Z,349
2017-09-05T13:54:37.214Z,336
2017-09-05T13:55:37.279Z,370
2017-09-05T13:56:37.310Z,391
2017-09-05T13:57:37.288Z,368
2017-09-05T13:58:37.217Z,366
2017-09-05T13:59:37.274Z,389
2017-09-05T14:00:37.280Z,333
2017-09-05T14:01:37.305Z,324
2017-09-05T14:02:37.307Z,312
2017-09-05T14:03:37.290Z,307
2017-09-05T14:04:37.224Z,305
2017-09-05T14:05:37.306Z,299
2017-09-05T14:06:37.258Z,292
2017-09-05T14:07:37.320Z,286
2017-09-05T14:08:37.241Z,282
2017-09-05T14:09:37.277Z,274
2017-09-05T14:10:37.245Z,263
2017-09-05T14:11:37.217Z,244
2017-09-05T14:12:37.245Z,228